sensor_id;sensor_type;location;lat;lon;timestamp;temperature;humidity
60242;SHT30;46103;52.076;113.488;2023-05-10T00:02:45;10.35;39.91
60242;SHT30;46103;52.076;113.488;2023-05-10T00:05:49;10.39;40.04
60242;SHT30;46103;52.076;113.488;2023-05-10T00:08:53;10.35;41.04
60242;SHT30;46103;52.076;113.488;2023-05-10T00:11:57;10.50;39.91
60242;SHT30;46103;52.076;113.488;2023-05-10T00:15:01;10.49;40.25
60242;SHT30;46103;52.076;113.488;2023-05-10T00:18:06;10.65;39.92
60242;SHT30;46103;52.076;113.488;2023-05-10T00:21:10;10.81;39.87
60242;SHT30;46103;52.076;113.488;2023-05-10T00:24:13;10.97;39.40
60242;SHT30;46103;52.076;113.488;2023-05-10T00:27:17;11.22;38.80
60242;SHT30;46103;52.076;113.488;2023-05-10T00:30:21;11.45;39.65
60242;SHT30;46103;52.076;113.488;2023-05-10T00:33:25;11.48;38.21
60242;SHT30;46103;52.076;113.488;2023-05-10T00:36:28;11.80;37.66
60242;SHT30;46103;52.076;113.488;2023-05-10T00:39:32;11.96;37.35
60242;SHT30;46103;52.076;113.488;2023-05-10T00:42:36;12.16;36.92
60242;SHT30;46103;52.076;113.488;2023-05-10T00:45:41;12.35;36.43
60242;SHT30;46103;52.076;113.488;2023-05-10T00:48:46;12.49;36.05
60242;SHT30;46103;52.076;113.488;2023-05-10T00:51:50;12.75;35.76
60242;SHT30;46103;52.076;113.488;2023-05-10T00:54:54;12.97;35.68
60242;SHT30;46103;52.076;113.488;2023-05-10T00:57:59;13.16;35.21
60242;SHT30;46103;52.076;113.488;2023-05-10T01:01:02;13.34;34.90
60242;SHT30;46103;52.076;113.488;2023-05-10T01:04:06;13.51;35.21
60242;SHT30;46103;52.076;113.488;2023-05-10T01:07:10;13.61;33.92
60242;SHT30;46103;52.076;113.488;2023-05-10T01:10:14;13.72;33.96
60242;SHT30;46103;52.076;113.488;2023-05-10T01:13:33;13.86;33.80
60242;SHT30;46103;52.076;113.488;2023-05-10T01:16:39;13.95;33.99
60242;SHT30;46103;52.076;113.488;2023-05-10T01:19:44;14.13;33.63
60242;SHT30;46103;52.076;113.488;2023-05-10T01:23:19;14.45;33.27
60242;SHT30;46103;52.076;113.488;2023-05-10T01:30:01;14.99;32.65
60242;SHT30;46103;52.076;113.488;2023-05-10T01:36:51;15.60;31.75
60242;SHT30;46103;52.076;113.488;2023-05-10T01:44:04;16.13;31.08
60242;SHT30;46103;52.076;113.488;2023-05-10T01:47:17;16.47;30.81
60242;SHT30;46103;52.076;113.488;2023-05-10T01:50:27;16.75;30.14
60242;SHT30;46103;52.076;113.488;2023-05-10T01:53:33;16.81;30.19
60242;SHT30;46103;52.076;113.488;2023-05-10T01:56:39;17.14;29.80
60242;SHT30;46103;52.076;113.488;2023-05-10T01:59:45;17.40;29.38
60242;SHT30;46103;52.076;113.488;2023-05-10T02:02:52;17.66;28.94
60242;SHT30;46103;52.076;113.488;2023-05-10T02:05:57;17.96;28.61
60242;SHT30;46103;52.076;113.488;2023-05-10T02:09:03;18.04;28.57
60242;SHT30;46103;52.076;113.488;2023-05-10T02:12:07;18.26;27.84
60242;SHT30;46103;52.076;113.488;2023-05-10T02:15:12;18.49;27.75
60242;SHT30;46103;52.076;113.488;2023-05-10T02:18:18;18.83;26.76
60242;SHT30;46103;52.076;113.488;2023-05-10T02:21:21;18.97;26.78
60242;SHT30;46103;52.076;113.488;2023-05-10T02:24:25;19.24;26.53
60242;SHT30;46103;52.076;113.488;2023-05-10T02:27:30;19.41;26.22
60242;SHT30;46103;52.076;113.488;2023-05-10T02:30:34;19.61;25.54
60242;SHT30;46103;52.076;113.488;2023-05-10T02:33:39;19.79;25.26
60242;SHT30;46103;52.076;113.488;2023-05-10T02:36:44;20.09;24.57
60242;SHT30;46103;52.076;113.488;2023-05-10T02:39:49;20.17;24.55
60242;SHT30;46103;52.076;113.488;2023-05-10T02:42:54;20.38;24.35
60242;SHT30;46103;52.076;113.488;2023-05-10T02:45:59;20.47;24.29
60242;SHT30;46103;52.076;113.488;2023-05-10T02:49:03;20.66;24.20
60242;SHT30;46103;52.076;113.488;2023-05-10T02:52:07;20.75;24.00
60242;SHT30;46103;52.076;113.488;2023-05-10T02:55:15;20.86;23.89
60242;SHT30;46103;52.076;113.488;2023-05-10T02:58:19;20.87;24.11
60242;SHT30;46103;52.076;113.488;2023-05-10T03:01:23;20.97;24.25
60242;SHT30;46103;52.076;113.488;2023-05-10T03:04:27;21.13;23.68
60242;SHT30;46103;52.076;113.488;2023-05-10T03:07:33;21.10;23.96
60242;SHT30;46103;52.076;113.488;2023-05-10T03:10:47;21.38;23.56
60242;SHT30;46103;52.076;113.488;2023-05-10T03:17:09;21.82;22.87
60242;SHT30;46103;52.076;113.488;2023-05-10T03:20:25;22.08;22.86
60242;SHT30;46103;52.076;113.488;2023-05-10T03:23:48;22.44;22.38
60242;SHT30;46103;52.076;113.488;2023-05-10T03:26:55;22.64;22.18
60242;SHT30;46103;52.076;113.488;2023-05-10T03:30:03;22.78;21.63
60242;SHT30;46103;52.076;113.488;2023-05-10T03:33:08;22.92;21.44
60242;SHT30;46103;52.076;113.488;2023-05-10T03:36:15;22.81;21.19
60242;SHT30;46103;52.076;113.488;2023-05-10T03:39:19;22.91;20.83
60242;SHT30;46103;52.076;113.488;2023-05-10T03:42:28;23.05;20.69
60242;SHT30;46103;52.076;113.488;2023-05-10T03:45:32;23.08;20.87
60242;SHT30;46103;52.076;113.488;2023-05-10T03:48:36;23.15;21.00
60242;SHT30;46103;52.076;113.488;2023-05-10T03:51:39;23.18;21.00
60242;SHT30;46103;52.076;113.488;2023-05-10T03:54:43;23.19;20.79
60242;SHT30;46103;52.076;113.488;2023-05-10T03:57:46;23.37;20.68
60242;SHT30;46103;52.076;113.488;2023-05-10T04:00:52;23.49;20.70
60242;SHT30;46103;52.076;113.488;2023-05-10T04:03:55;23.61;20.42
60242;SHT30;46103;52.076;113.488;2023-05-10T04:06:59;23.66;20.50
60242;SHT30;46103;52.076;113.488;2023-05-10T04:10:03;23.84;20.08
60242;SHT30;46103;52.076;113.488;2023-05-10T04:13:06;24.08;19.85
60242;SHT30;46103;52.076;113.488;2023-05-10T04:16:10;24.28;19.77
60242;SHT30;46103;52.076;113.488;2023-05-10T04:19:14;24.26;19.75
60242;SHT30;46103;52.076;113.488;2023-05-10T04:22:17;24.39;19.72
60242;SHT30;46103;52.076;113.488;2023-05-10T04:25:20;24.49;19.43
60242;SHT30;46103;52.076;113.488;2023-05-10T04:28:23;24.46;19.13
60242;SHT30;46103;52.076;113.488;2023-05-10T04:31:27;24.64;19.24
60242;SHT30;46103;52.076;113.488;2023-05-10T04:34:30;24.95;18.68
60242;SHT30;46103;52.076;113.488;2023-05-10T04:37:34;25.08;18.47
60242;SHT30;46103;52.076;113.488;2023-05-10T04:40:38;25.24;17.78
60242;SHT30;46103;52.076;113.488;2023-05-10T04:43:41;25.29;18.00
60242;SHT30;46103;52.076;113.488;2023-05-10T04:46:44;25.52;17.78
60242;SHT30;46103;52.076;113.488;2023-05-10T04:49:48;25.73;17.46
60242;SHT30;46103;52.076;113.488;2023-05-10T04:52:51;25.67;17.47
60242;SHT30;46103;52.076;113.488;2023-05-10T04:55:55;25.66;17.50
60242;SHT30;46103;52.076;113.488;2023-05-10T04:58:58;25.93;17.50
60242;SHT30;46103;52.076;113.488;2023-05-10T05:02:01;26.20;16.99
60242;SHT30;46103;52.076;113.488;2023-05-10T05:05:05;26.44;17.03
60242;SHT30;46103;52.076;113.488;2023-05-10T05:08:09;26.59;16.57
60242;SHT30;46103;52.076;113.488;2023-05-10T05:11:12;26.86;16.31
60242;SHT30;46103;52.076;113.488;2023-05-10T05:14:15;27.02;16.06
60242;SHT30;46103;52.076;113.488;2023-05-10T05:17:18;27.42;15.87
60242;SHT30;46103;52.076;113.488;2023-05-10T05:20:21;27.40;15.51
60242;SHT30;46103;52.076;113.488;2023-05-10T05:23:25;27.29;15.57
60242;SHT30;46103;52.076;113.488;2023-05-10T05:26:29;27.37;15.62
60242;SHT30;46103;52.076;113.488;2023-05-10T05:29:32;27.24;15.51
60242;SHT30;46103;52.076;113.488;2023-05-10T05:32:36;27.29;15.52
60242;SHT30;46103;52.076;113.488;2023-05-10T05:35:39;27.78;15.30
60242;SHT30;46103;52.076;113.488;2023-05-10T05:38:43;28.17;15.06
60242;SHT30;46103;52.076;113.488;2023-05-10T05:41:48;28.61;14.89
60242;SHT30;46103;52.076;113.488;2023-05-10T05:44:52;28.69;14.83
60242;SHT30;46103;52.076;113.488;2023-05-10T05:47:55;28.54;14.73
60242;SHT30;46103;52.076;113.488;2023-05-10T05:51:00;28.44;14.87
60242;SHT30;46103;52.076;113.488;2023-05-10T05:54:04;28.41;14.74
60242;SHT30;46103;52.076;113.488;2023-05-10T05:57:08;28.45;14.70
60242;SHT30;46103;52.076;113.488;2023-05-10T06:00:12;28.14;14.96
60242;SHT30;46103;52.076;113.488;2023-05-10T06:03:17;27.88;15.06
60242;SHT30;46103;52.076;113.488;2023-05-10T06:06:22;28.02;14.86
60242;SHT30;46103;52.076;113.488;2023-05-10T06:09:26;28.52;14.73
60242;SHT30;46103;52.076;113.488;2023-05-10T06:12:30;28.87;14.52
60242;SHT30;46103;52.076;113.488;2023-05-10T06:15:34;28.72;14.40
60242;SHT30;46103;52.076;113.488;2023-05-10T06:18:38;28.68;14.54
60242;SHT30;46103;52.076;113.488;2023-05-10T06:21:42;28.24;14.71
60242;SHT30;46103;52.076;113.488;2023-05-10T06:24:45;27.78;15.15
60242;SHT30;46103;52.076;113.488;2023-05-10T06:27:49;27.49;15.35
60242;SHT30;46103;52.076;113.488;2023-05-10T06:30:55;27.42;15.35
60242;SHT30;46103;52.076;113.488;2023-05-10T06:33:59;27.17;15.58
60242;SHT30;46103;52.076;113.488;2023-05-10T06:37:03;27.20;15.63
60242;SHT30;46103;52.076;113.488;2023-05-10T06:40:07;27.45;14.93
60242;SHT30;46103;52.076;113.488;2023-05-10T06:43:11;27.52;15.24
60242;SHT30;46103;52.076;113.488;2023-05-10T06:46:15;27.63;14.91
60242;SHT30;46103;52.076;113.488;2023-05-10T06:49:19;27.76;15.04
60242;SHT30;46103;52.076;113.488;2023-05-10T06:52:23;27.70;15.05
60242;SHT30;46103;52.076;113.488;2023-05-10T06:55:26;27.45;15.22
60242;SHT30;46103;52.076;113.488;2023-05-10T06:58:30;27.23;15.49
60242;SHT30;46103;52.076;113.488;2023-05-10T07:01:35;27.08;15.66
60242;SHT30;46103;52.076;113.488;2023-05-10T07:04:39;27.00;15.50
60242;SHT30;46103;52.076;113.488;2023-05-10T07:07:43;26.73;15.56
60242;SHT30;46103;52.076;113.488;2023-05-10T07:10:47;26.71;15.81
60242;SHT30;46103;52.076;113.488;2023-05-10T07:13:51;26.86;15.73
60242;SHT30;46103;52.076;113.488;2023-05-10T07:16:55;27.00;15.70
60242;SHT30;46103;52.076;113.488;2023-05-10T07:19:59;27.27;15.78
60242;SHT30;46103;52.076;113.488;2023-05-10T07:23:03;27.04;15.96
60242;SHT30;46103;52.076;113.488;2023-05-10T07:26:07;26.83;16.16
60242;SHT30;46103;52.076;113.488;2023-05-10T07:29:11;27.06;16.49
60242;SHT30;46103;52.076;113.488;2023-05-10T07:32:15;27.06;15.94
60242;SHT30;46103;52.076;113.488;2023-05-10T07:35:19;26.93;16.38
60242;SHT30;46103;52.076;113.488;2023-05-10T07:38:22;26.72;16.37
60242;SHT30;46103;52.076;113.488;2023-05-10T07:41:26;26.46;16.65
60242;SHT30;46103;52.076;113.488;2023-05-10T07:44:30;26.39;17.05
60242;SHT30;46103;52.076;113.488;2023-05-10T07:47:34;26.08;17.52
60242;SHT30;46103;52.076;113.488;2023-05-10T07:50:37;25.94;17.66
60242;SHT30;46103;52.076;113.488;2023-05-10T07:53:41;25.76;17.73
60242;SHT30;46103;52.076;113.488;2023-05-10T07:56:45;25.87;17.65
60242;SHT30;46103;52.076;113.488;2023-05-10T07:59:50;25.86;17.60
60242;SHT30;46103;52.076;113.488;2023-05-10T08:02:54;25.76;17.57
60242;SHT30;46103;52.076;113.488;2023-05-10T08:05:58;25.96;17.65
60242;SHT30;46103;52.076;113.488;2023-05-10T08:09:03;25.90;17.86
60242;SHT30;46103;52.076;113.488;2023-05-10T08:12:06;26.07;17.44
60242;SHT30;46103;52.076;113.488;2023-05-10T08:15:10;26.31;17.35
60242;SHT30;46103;52.076;113.488;2023-05-10T08:18:14;26.38;17.53
60242;SHT30;46103;52.076;113.488;2023-05-10T08:21:18;26.53;16.93
60242;SHT30;46103;52.076;113.488;2023-05-10T08:24:23;26.58;16.79
60242;SHT30;46103;52.076;113.488;2023-05-10T08:27:27;26.37;16.94
60242;SHT30;46103;52.076;113.488;2023-05-10T08:30:31;26.28;17.08
60242;SHT30;46103;52.076;113.488;2023-05-10T08:33:35;26.28;16.98
60242;SHT30;46103;52.076;113.488;2023-05-10T08:36:39;26.20;17.11
60242;SHT30;46103;52.076;113.488;2023-05-10T08:39:43;26.53;16.82
60242;SHT30;46103;52.076;113.488;2023-05-10T08:43:07;26.48;16.92
60242;SHT30;46103;52.076;113.488;2023-05-10T08:46:11;26.32;16.98
60242;SHT30;46103;52.076;113.488;2023-05-10T08:49:19;26.25;16.97
60242;SHT30;46103;52.076;113.488;2023-05-10T08:52:24;26.08;17.17
60242;SHT30;46103;52.076;113.488;2023-05-10T08:55:30;25.98;17.00
60242;SHT30;46103;52.076;113.488;2023-05-10T08:58:36;25.77;17.20
60242;SHT30;46103;52.076;113.488;2023-05-10T09:01:42;25.67;17.27
60242;SHT30;46103;52.076;113.488;2023-05-10T09:04:45;25.58;17.36
60242;SHT30;46103;52.076;113.488;2023-05-10T09:07:49;25.50;17.44
60242;SHT30;46103;52.076;113.488;2023-05-10T09:10:54;25.38;17.38
60242;SHT30;46103;52.076;113.488;2023-05-10T09:13:58;25.31;17.45
60242;SHT30;46103;52.076;113.488;2023-05-10T09:17:01;25.22;17.60
60242;SHT30;46103;52.076;113.488;2023-05-10T09:20:05;25.11;18.02
60242;SHT30;46103;52.076;113.488;2023-05-10T09:23:10;25.04;17.99
60242;SHT30;46103;52.076;113.488;2023-05-10T09:26:14;24.98;18.26
60242;SHT30;46103;52.076;113.488;2023-05-10T09:29:17;24.91;18.39
60242;SHT30;46103;52.076;113.488;2023-05-10T09:32:20;24.61;18.33
60242;SHT30;46103;52.076;113.488;2023-05-10T09:35:25;24.55;18.42
60242;SHT30;46103;52.076;113.488;2023-05-10T09:38:48;24.56;18.37
60242;SHT30;46103;52.076;113.488;2023-05-10T09:41:51;24.35;18.73
60242;SHT30;46103;52.076;113.488;2023-05-10T09:45:06;24.15;19.25
60242;SHT30;46103;52.076;113.488;2023-05-10T09:48:10;23.95;19.89
60242;SHT30;46103;52.076;113.488;2023-05-10T09:51:23;23.74;20.35
60242;SHT30;46103;52.076;113.488;2023-05-10T09:54:27;23.70;20.26
60242;SHT30;46103;52.076;113.488;2023-05-10T09:57:30;23.73;20.20
60242;SHT30;46103;52.076;113.488;2023-05-10T10:00:38;23.77;19.80
60242;SHT30;46103;52.076;113.488;2023-05-10T10:03:42;23.81;19.68
60242;SHT30;46103;52.076;113.488;2023-05-10T10:06:47;23.85;19.77
60242;SHT30;46103;52.076;113.488;2023-05-10T10:10:01;23.79;20.35
60242;SHT30;46103;52.076;113.488;2023-05-10T10:13:06;23.58;20.74
60242;SHT30;46103;52.076;113.488;2023-05-10T10:16:09;23.60;20.51
60242;SHT30;46103;52.076;113.488;2023-05-10T10:19:13;23.58;20.57
60242;SHT30;46103;52.076;113.488;2023-05-10T10:22:17;23.54;20.50
60242;SHT30;46103;52.076;113.488;2023-05-10T10:25:22;23.51;21.03
60242;SHT30;46103;52.076;113.488;2023-05-10T10:35:11;23.58;20.57
60242;SHT30;46103;52.076;113.488;2023-05-10T10:38:14;23.53;20.87
60242;SHT30;46103;52.076;113.488;2023-05-10T10:41:35;23.51;20.90
60242;SHT30;46103;52.076;113.488;2023-05-10T10:44:38;23.50;20.97
60242;SHT30;46103;52.076;113.488;2023-05-10T10:48:21;23.47;20.79
60242;SHT30;46103;52.076;113.488;2023-05-10T10:51:28;23.46;20.82
60242;SHT30;46103;52.076;113.488;2023-05-10T10:54:32;23.39;20.78
60242;SHT30;46103;52.076;113.488;2023-05-10T10:57:53;23.31;21.11
60242;SHT30;46103;52.076;113.488;2023-05-10T11:01:17;23.13;21.27
60242;SHT30;46103;52.076;113.488;2023-05-10T11:04:21;23.06;21.42
60242;SHT30;46103;52.076;113.488;2023-05-10T11:07:26;22.91;21.62
60242;SHT30;46103;52.076;113.488;2023-05-10T11:10:29;22.75;21.97
60242;SHT30;46103;52.076;113.488;2023-05-10T11:13:38;22.51;22.62
60242;SHT30;46103;52.076;113.488;2023-05-10T11:16:44;22.14;23.49
60242;SHT30;46103;52.076;113.488;2023-05-10T11:20:06;21.98;23.47
60242;SHT30;46103;52.076;113.488;2023-05-10T11:23:12;21.89;23.84
60242;SHT30;46103;52.076;113.488;2023-05-10T11:26:18;21.75;24.45
60242;SHT30;46103;52.076;113.488;2023-05-10T11:29:25;21.57;24.71
60242;SHT30;46103;52.076;113.488;2023-05-10T11:32:29;21.40;25.05
60242;SHT30;46103;52.076;113.488;2023-05-10T11:35:40;21.28;25.17
60242;SHT30;46103;52.076;113.488;2023-05-10T11:38:45;21.14;25.37
60242;SHT30;46103;52.076;113.488;2023-05-10T11:41:49;21.02;25.28
60242;SHT30;46103;52.076;113.488;2023-05-10T11:44:53;20.92;25.76
60242;SHT30;46103;52.076;113.488;2023-05-10T11:47:57;20.79;25.85
60242;SHT30;46103;52.076;113.488;2023-05-10T11:51:01;20.71;25.66
60242;SHT30;46103;52.076;113.488;2023-05-10T11:54:09;20.69;25.37
60242;SHT30;46103;52.076;113.488;2023-05-10T11:57:14;20.65;27.51
60242;SHT30;46103;52.076;113.488;2023-05-10T12:00:18;20.66;26.63
60242;SHT30;46103;52.076;113.488;2023-05-10T12:03:22;20.58;25.71
60242;SHT30;46103;52.076;113.488;2023-05-10T12:06:40;20.52;25.81
60242;SHT30;46103;52.076;113.488;2023-05-10T12:10:03;20.44;25.97
60242;SHT30;46103;52.076;113.488;2023-05-10T12:13:21;20.35;26.09
60242;SHT30;46103;52.076;113.488;2023-05-10T12:16:39;20.28;26.34
60242;SHT30;46103;52.076;113.488;2023-05-10T12:20:14;20.21;26.57
60242;SHT30;46103;52.076;113.488;2023-05-10T12:23:58;20.10;26.84
60242;SHT30;46103;52.076;113.488;2023-05-10T12:36:38;19.94;27.16
60242;SHT30;46103;52.076;113.488;2023-05-10T12:40:06;19.89;27.30
60242;SHT30;46103;52.076;113.488;2023-05-10T12:50:27;19.76;27.50
60242;SHT30;46103;52.076;113.488;2023-05-10T12:53:33;19.72;27.55
60242;SHT30;46103;52.076;113.488;2023-05-10T12:56:37;19.70;27.66
60242;SHT30;46103;52.076;113.488;2023-05-10T12:59:52;19.73;27.71
60242;SHT30;46103;52.076;113.488;2023-05-10T13:03:16;19.76;27.62
60242;SHT30;46103;52.076;113.488;2023-05-10T13:06:35;19.76;27.75
60242;SHT30;46103;52.076;113.488;2023-05-10T13:13:17;19.73;27.96
60242;SHT30;46103;52.076;113.488;2023-05-10T13:16:34;19.72;28.21
60242;SHT30;46103;52.076;113.488;2023-05-10T13:19:38;19.69;28.07
60242;SHT30;46103;52.076;113.488;2023-05-10T13:22:43;19.69;28.04
60242;SHT30;46103;52.076;113.488;2023-05-10T13:25:48;19.66;28.22
60242;SHT30;46103;52.076;113.488;2023-05-10T13:29:08;19.66;28.18
60242;SHT30;46103;52.076;113.488;2023-05-10T13:32:31;19.72;28.15
60242;SHT30;46103;52.076;113.488;2023-05-10T13:36:16;19.63;28.26
60242;SHT30;46103;52.076;113.488;2023-05-10T13:40:44;19.63;28.47
60242;SHT30;46103;52.076;113.488;2023-05-10T13:43:48;19.58;28.38
60242;SHT30;46103;52.076;113.488;2023-05-10T13:51:56;19.79;27.68
60242;SHT30;46103;52.076;113.488;2023-05-10T13:56:02;19.82;27.99
60242;SHT30;46103;52.076;113.488;2023-05-10T14:07:27;19.89;28.17
60242;SHT30;46103;52.076;113.488;2023-05-10T14:10:33;19.87;28.11
60242;SHT30;46103;52.076;113.488;2023-05-10T14:14:28;19.89;28.26
60242;SHT30;46103;52.076;113.488;2023-05-10T14:19:10;19.92;27.98
60242;SHT30;46103;52.076;113.488;2023-05-10T14:22:36;19.90;27.86
60242;SHT30;46103;52.076;113.488;2023-05-10T14:26:27;19.93;27.94
60242;SHT30;46103;52.076;113.488;2023-05-10T14:29:32;19.93;28.01
60242;SHT30;46103;52.076;113.488;2023-05-10T14:32:52;19.77;29.25
60242;SHT30;46103;52.076;113.488;2023-05-10T14:36:12;19.58;29.80
60242;SHT30;46103;52.076;113.488;2023-05-10T14:39:20;19.59;29.71
60242;SHT30;46103;52.076;113.488;2023-05-10T14:43:02;19.62;29.73
60242;SHT30;46103;52.076;113.488;2023-05-10T14:46:41;19.63;29.73
60242;SHT30;46103;52.076;113.488;2023-05-10T14:54:13;19.63;30.26
60242;SHT30;46103;52.076;113.488;2023-05-10T15:01:21;19.63;30.39
60242;SHT30;46103;52.076;113.488;2023-05-10T15:05:29;19.61;30.61
60242;SHT30;46103;52.076;113.488;2023-05-10T15:09:09;19.58;30.82
60242;SHT30;46103;52.076;113.488;2023-05-10T15:13:07;19.54;30.91
60242;SHT30;46103;52.076;113.488;2023-05-10T15:16:11;19.51;31.03
60242;SHT30;46103;52.076;113.488;2023-05-10T15:19:31;19.44;30.96
60242;SHT30;46103;52.076;113.488;2023-05-10T15:22:40;19.39;31.06
60242;SHT30;46103;52.076;113.488;2023-05-10T15:25:47;19.35;31.37
60242;SHT30;46103;52.076;113.488;2023-05-10T15:29:07;19.25;31.99
60242;SHT30;46103;52.076;113.488;2023-05-10T15:32:26;19.21;31.93
60242;SHT30;46103;52.076;113.488;2023-05-10T15:35:35;19.22;32.10
60242;SHT30;46103;52.076;113.488;2023-05-10T15:38:55;19.21;32.09
60242;SHT30;46103;52.076;113.488;2023-05-10T15:42:01;19.27;31.86
60242;SHT30;46103;52.076;113.488;2023-05-10T15:45:21;19.21;32.06
60242;SHT30;46103;52.076;113.488;2023-05-10T15:48:40;19.11;32.18
60242;SHT30;46103;52.076;113.488;2023-05-10T15:52:00;18.97;32.40
60242;SHT30;46103;52.076;113.488;2023-05-10T15:55:06;18.94;32.68
60242;SHT30;46103;52.076;113.488;2023-05-10T15:58:29;18.87;32.70
60242;SHT30;46103;52.076;113.488;2023-05-10T16:01:48;18.84;32.81
60242;SHT30;46103;52.076;113.488;2023-05-10T16:05:07;18.77;32.88
60242;SHT30;46103;52.076;113.488;2023-05-10T16:08:15;18.70;33.16
60242;SHT30;46103;52.076;113.488;2023-05-10T16:11:34;18.66;33.30
60242;SHT30;46103;52.076;113.488;2023-05-10T16:14:52;18.59;33.76
60242;SHT30;46103;52.076;113.488;2023-05-10T16:18:00;18.51;34.08
60242;SHT30;46103;52.076;113.488;2023-05-10T16:21:08;18.41;34.23
60242;SHT30;46103;52.076;113.488;2023-05-10T16:24:17;18.35;34.35
60242;SHT30;46103;52.076;113.488;2023-05-10T16:27:24;18.35;34.35
60242;SHT30;46103;52.076;113.488;2023-05-10T16:30:33;18.34;34.32
60242;SHT30;46103;52.076;113.488;2023-05-10T16:33:41;18.32;34.37
60242;SHT30;46103;52.076;113.488;2023-05-10T16:36:49;18.36;34.34
60242;SHT30;46103;52.076;113.488;2023-05-10T16:39:59;18.34;34.31
60242;SHT30;46103;52.076;113.488;2023-05-10T16:43:04;18.31;34.24
60242;SHT30;46103;52.076;113.488;2023-05-10T16:46:23;18.28;34.28
60242;SHT30;46103;52.076;113.488;2023-05-10T16:49:42;18.39;33.94
60242;SHT30;46103;52.076;113.488;2023-05-10T16:52:47;18.49;33.70
60242;SHT30;46103;52.076;113.488;2023-05-10T16:55:53;18.52;33.64
60242;SHT30;46103;52.076;113.488;2023-05-10T16:58:58;18.56;33.54
60242;SHT30;46103;52.076;113.488;2023-05-10T17:02:04;18.57;33.50
60242;SHT30;46103;52.076;113.488;2023-05-10T17:05:10;18.55;33.50
60242;SHT30;46103;52.076;113.488;2023-05-10T17:08:18;18.56;33.62
60242;SHT30;46103;52.076;113.488;2023-05-10T17:11:25;18.42;34.16
60242;SHT30;46103;52.076;113.488;2023-05-10T17:14:31;18.07;35.01
60242;SHT30;46103;52.076;113.488;2023-05-10T17:17:36;17.83;35.45
60242;SHT30;46103;52.076;113.488;2023-05-10T17:20:43;17.63;35.92
60242;SHT30;46103;52.076;113.488;2023-05-10T17:23:48;17.46;36.26
60242;SHT30;46103;52.076;113.488;2023-05-10T17:26:55;17.46;36.26
60242;SHT30;46103;52.076;113.488;2023-05-10T17:30:02;17.45;36.38
60242;SHT30;46103;52.076;113.488;2023-05-10T17:33:09;17.46;36.17
60242;SHT30;46103;52.076;113.488;2023-05-10T17:36:16;17.56;36.05
60242;SHT30;46103;52.076;113.488;2023-05-10T17:39:30;17.63;35.95
60242;SHT30;46103;52.076;113.488;2023-05-10T17:42:35;17.71;35.91
60242;SHT30;46103;52.076;113.488;2023-05-10T17:45:40;17.71;36.00
60242;SHT30;46103;52.076;113.488;2023-05-10T17:48:47;17.71;35.79
60242;SHT30;46103;52.076;113.488;2023-05-10T17:51:52;17.71;35.76
60242;SHT30;46103;52.076;113.488;2023-05-10T17:55:11;17.69;35.75
60242;SHT30;46103;52.076;113.488;2023-05-10T17:58:22;17.65;35.85
60242;SHT30;46103;52.076;113.488;2023-05-10T18:01:41;17.69;35.95
60242;SHT30;46103;52.076;113.488;2023-05-10T18:04:47;17.69;35.88
60242;SHT30;46103;52.076;113.488;2023-05-10T18:08:06;17.69;35.88
60242;SHT30;46103;52.076;113.488;2023-05-10T18:11:25;17.66;36.00
60242;SHT30;46103;52.076;113.488;2023-05-10T18:14:32;17.63;36.04
60242;SHT30;46103;52.076;113.488;2023-05-10T18:17:44;17.62;35.86
60242;SHT30;46103;52.076;113.488;2023-05-10T18:20:51;17.54;38.24
60242;SHT30;46103;52.076;113.488;2023-05-10T18:24:13;17.19;40.65
60242;SHT30;46103;52.076;113.488;2023-05-10T18:27:40;16.56;44.30
60242;SHT30;46103;52.076;113.488;2023-05-10T18:30:46;16.20;46.33
60242;SHT30;46103;52.076;113.488;2023-05-10T18:34:05;15.82;49.04
60242;SHT30;46103;52.076;113.488;2023-05-10T18:37:12;15.60;50.03
60242;SHT30;46103;52.076;113.488;2023-05-10T18:40:35;15.34;51.77
60242;SHT30;46103;52.076;113.488;2023-05-10T18:43:42;15.20;52.68
60242;SHT30;46103;52.076;113.488;2023-05-10T18:46:49;15.12;53.40
60242;SHT30;46103;52.076;113.488;2023-05-10T18:49:58;15.13;52.70
60242;SHT30;46103;52.076;113.488;2023-05-10T18:53:17;15.16;53.32
60242;SHT30;46103;52.076;113.488;2023-05-10T18:56:23;15.23;53.41
60242;SHT30;46103;52.076;113.488;2023-05-10T18:59:30;15.30;52.23
60242;SHT30;46103;52.076;113.488;2023-05-10T19:02:50;15.36;51.92
60242;SHT30;46103;52.076;113.488;2023-05-10T19:06:14;15.49;51.66
60242;SHT30;46103;52.076;113.488;2023-05-10T19:09:21;15.55;54.88
60242;SHT30;46103;52.076;113.488;2023-05-10T19:12:27;15.64;50.97
60242;SHT30;46103;52.076;113.488;2023-05-10T19:16:05;15.71;51.68
60242;SHT30;46103;52.076;113.488;2023-05-10T19:19:16;15.54;53.11
60242;SHT30;46103;52.076;113.488;2023-05-10T19:22:35;15.34;54.22
60242;SHT30;46103;52.076;113.488;2023-05-10T19:25:53;14.99;54.99
60242;SHT30;46103;52.076;113.488;2023-05-10T19:29:02;14.61;58.11
60242;SHT30;46103;52.076;113.488;2023-05-10T19:32:13;14.16;59.81
60242;SHT30;46103;52.076;113.488;2023-05-10T19:35:19;13.81;63.17
60242;SHT30;46103;52.076;113.488;2023-05-10T19:38:26;13.61;64.57
60242;SHT30;46103;52.076;113.488;2023-05-10T19:41:39;13.50;65.97
60242;SHT30;46103;52.076;113.488;2023-05-10T19:44:48;13.47;65.05
60242;SHT30;46103;52.076;113.488;2023-05-10T19:48:06;13.46;64.73
60242;SHT30;46103;52.076;113.488;2023-05-10T19:51:24;13.47;65.88
60242;SHT30;46103;52.076;113.488;2023-05-10T19:54:32;13.53;65.62
60242;SHT30;46103;52.076;113.488;2023-05-10T19:57:51;13.53;66.51
60242;SHT30;46103;52.076;113.488;2023-05-10T20:01:10;13.37;67.23
60242;SHT30;46103;52.076;113.488;2023-05-10T20:04:20;13.40;67.37
60242;SHT30;46103;52.076;113.488;2023-05-10T20:07:39;13.44;67.48
60242;SHT30;46103;52.076;113.488;2023-05-10T20:10:59;13.48;68.15
60242;SHT30;46103;52.076;113.488;2023-05-10T20:14:20;13.51;69.27
60242;SHT30;46103;52.076;113.488;2023-05-10T20:17:39;13.51;70.22
60242;SHT30;46103;52.076;113.488;2023-05-10T20:20:51;13.51;70.02
60242;SHT30;46103;52.076;113.488;2023-05-10T20:24:10;13.46;69.92
60242;SHT30;46103;52.076;113.488;2023-05-10T20:27:29;13.44;71.35